Fort Gibson, Oklahoma
Current Conditions -  °F | °C
As of 1:53 AM on Monday 22 Dec 2014 (Local Time) from KMKO Reporting Station
Overcast Overcast  
Wind Chill: 41°   Ceiling: 2800
Heat Index: 46°   Visibility: 10mi
Dew Point: 43°   Wind: 12mph
Humidity: 89%   Direction: 140°SE
Pressure: 29.69"   Gusts: NA
Location:  35.8°N, 95.25°W
Report Text: KMKO 220753Z AUTO 14010KT 10SM SCT023 OVC028 08/06 A2969 RMK AO2 SLP053 T00780061
Loading
Personal Weather Stations






























Interactive Weather Map New forecast layout! Learn more

10-Day Weather Forecast

Advertisements
Track Severe Weather on mobile